Time;durP1;ratioP1;P1;durP2;ratioP2;P2;SDS_P1;SDS_P2;PMS_P1;PMS_P2;Temp;Humidity;BMP_temperature;BMP_pressure;BME280_temperature;BME280_humidity;BME280_pressure;Samples;Min_cycle;Max_cycle;Signal;HPM_P1;HPM_P2
2023/01/20 00:01:09;;;;;;;48.85;30.35;;;;;;;-0.60;100.00;100947.66;5086216;28;20024;-46
2023/01/20 00:03:35;;;;;;;46.90;31.05;;;;;;;-0.63;100.00;100938.91;5091064;28;20102;-49
2023/01/20 00:06:01;;;;;;;50.55;33.13;;;;;;;-0.64;100.00;100955.44;5091073;28;20032;-51
2023/01/20 00:08:26;;;;;;;47.40;32.92;;;;;;;-0.66;100.00;100952.13;5089799;28;20035;-49
2023/01/20 00:10:52;;;;;;;48.15;31.92;;;;;;;-0.64;100.00;100960.84;5090983;28;20086;-46
2023/01/20 00:13:17;;;;;;;45.88;30.60;;;;;;;-0.63;100.00;100957.09;5091143;28;20052;-47
2023/01/20 00:15:42;;;;;;;45.15;31.17;;;;;;;-0.63;100.00;100960.66;5090915;28;20020;-47
2023/01/20 00:18:08;;;;;;;44.75;30.50;;;;;;;-0.63;100.00;100966.09;5090808;28;20115;-47
2023/01/20 00:20:33;;;;;;;43.38;27.13;;;;;;;-0.55;100.00;100969.53;5090471;28;20024;-48
2023/01/20 00:22:58;;;;;;;41.42;27.40;;;;;;;-0.50;100.00;100975.09;5093214;28;20393;-44
2023/01/20 00:25:23;;;;;;;42.58;25.70;;;;;;;-0.47;100.00;100982.81;5094487;28;20111;-47
2023/01/20 00:27:52;;;;;;;37.65;26.08;;;;;;;-0.50;100.00;100981.38;5094226;28;20028;-51
2023/01/20 00:30:17;;;;;;;37.85;26.45;;;;;;;-0.50;100.00;100986.81;5094498;28;20086;-47
2023/01/20 00:32:44;;;;;;;38.10;25.85;;;;;;;-0.44;100.00;100985.09;5094917;28;20040;-49
2023/01/20 00:35:10;;;;;;;35.95;24.75;;;;;;;-0.41;100.00;100991.94;5094766;28;20039;-47
2023/01/20 00:37:36;;;;;;;36.78;25.20;;;;;;;-0.47;100.00;100988.25;5094715;28;20020;-47
2023/01/20 00:40:02;;;;;;;36.05;24.85;;;;;;;-0.47;100.00;100993.69;5094574;28;20042;-47
2023/01/20 00:42:28;;;;;;;34.45;23.95;;;;;;;-0.50;100.00;100997.69;5094831;28;20031;-49
2023/01/20 00:44:53;;;;;;;35.85;24.88;;;;;;;-0.50;100.00;100999.56;5094590;28;20056;-48
2023/01/20 00:47:19;;;;;;;37.17;24.88;;;;;;;-0.49;100.00;100998.50;5094484;28;20035;-49
2023/01/20 00:49:45;;;;;;;35.20;25.13;;;;;;;-0.49;100.00;101002.06;5094075;28;20039;-47
2023/01/20 00:52:11;;;;;;;39.45;25.63;;;;;;;-0.43;100.00;101003.06;5094410;28;20182;-46
2023/01/20 00:54:36;;;;;;;38.38;25.38;;;;;;;-0.45;100.00;100998.88;5094175;28;20054;-45
2023/01/20 00:57:01;;;;;;;39.67;26.40;;;;;;;-0.45;100.00;101001.59;5094306;28;20046;-48
2023/01/20 00:59:26;;;;;;;42.67;27.27;;;;;;;-0.48;100.00;101005.63;5094175;28;20036;-46
2023/01/20 01:01:52;;;;;;;38.38;24.95;;;;;;;-0.51;100.00;101004.19;5086625;28;20510;-46
2023/01/20 01:04:17;;;;;;;40.60;26.75;;;;;;;-0.56;100.00;101000.50;5094499;28;20103;-47
2023/01/20 01:06:43;;;;;;;40.50;26.60;;;;;;;-0.58;100.00;101005.31;5094187;28;20105;-46
2023/01/20 01:09:08;;;;;;;43.28;27.15;;;;;;;-0.56;100.00;100997.78;5094323;28;20028;-49
2023/01/20 01:11:34;;;;;;;44.13;29.10;;;;;;;-0.60;100.00;101007.44;5092871;28;20115;-48
2023/01/20 01:13:59;;;;;;;43.58;27.50;;;;;;;-0.60;100.00;101005.56;5092607;28;20016;-46
2023/01/20 01:16:24;;;;;;;44.42;28.23;;;;;;;-0.56;100.00;101011.38;5094564;28;20024;-47
2023/01/20 01:18:52;;;;;;;41.25;27.08;;;;;;;-0.57;100.00;101012.41;5093901;28;20458;-47
2023/01/20 01:21:18;;;;;;;44.97;27.50;;;;;;;-0.48;100.00;101019.19;5093686;28;20077;-46
2023/01/20 01:23:43;;;;;;;46.70;30.17;;;;;;;-0.57;100.00;101021.41;5093660;28;20028;-49
2023/01/20 01:26:09;;;;;;;46.45;28.67;;;;;;;-0.54;100.00;101031.81;5093744;28;20039;-51
2023/01/20 01:28:34;;;;;;;44.08;29.08;;;;;;;-0.52;100.00;101031.59;5093458;28;20099;-47
2023/01/20 01:31:02;;;;;;;45.40;28.58;;;;;;;-0.47;100.00;101032.56;5093722;28;20133;-47
2023/01/20 01:33:28;;;;;;;47.08;29.23;;;;;;;-0.47;100.00;101034.47;5093267;28;20074;-47
2023/01/20 01:35:58;;;;;;;45.90;27.95;;;;;;;-0.43;100.00;101040.25;5092159;28;20024;-46
2023/01/20 01:38:23;;;;;;;49.45;29.98;;;;;;;-0.44;100.00;101035.88;5093681;28;20032;-48
2023/01/20 01:40:50;;;;;;;49.47;30.30;;;;;;;-0.43;100.00;101032.09;5092027;28;20372;-46
2023/01/20 01:43:30;;;;;;;47.28;29.85;;;;;;;-0.42;100.00;101034.59;5093250;28;20071;-46
2023/01/20 01:45:56;;;;;;;45.58;26.45;;;;;;;-0.41;100.00;101036.25;5093562;28;20467;-45
2023/01/20 01:48:30;;;;;;;48.65;29.42;;;;;;;-0.45;100.00;101043.22;5093440;28;20032;-50
2023/01/20 01:50:59;;;;;;;44.15;26.52;;;;;;;-0.41;100.00;101046.31;5093534;28;20107;-49
2023/01/20 01:53:26;;;;;;;46.00;28.13;;;;;;;-0.43;100.00;101040.25;5093330;28;20035;-47
2023/01/20 01:55:59;;;;;;;49.20;29.73;;;;;;;-0.44;100.00;101044.03;5089446;28;20044;-49
2023/01/20 01:58:37;;;;;;;45.92;29.15;;;;;;;-0.40;100.00;101046.06;5088968;28;20126;-47
2023/01/20 02:01:02;;;;;;;46.95;29.58;;;;;;;-0.47;100.00;101048.03;5093032;28;20032;-48
2023/01/20 02:03:34;;;;;;;48.85;30.25;;;;;;;-0.48;100.00;101043.66;5093009;28;20035;-46
2023/01/20 02:06:01;;;;;;;47.85;28.50;;;;;;;-0.46;100.00;101044.28;5092754;28;20051;-46
2023/01/20 02:08:26;;;;;;;46.75;28.33;;;;;;;-0.46;100.00;101033.41;5092875;28;20039;-45
2023/01/20 02:10:52;;;;;;;45.47;27.77;;;;;;;-0.40;100.00;101043.34;5092748;28;20030;-45
2023/01/20 02:13:17;;;;;;;45.20;27.85;;;;;;;-0.46;100.00;101030.69;5092782;28;20058;-47
2023/01/20 02:15:54;;;;;;;50.00;28.95;;;;;;;-0.47;100.00;101038.00;5092709;28;20059;-48
2023/01/20 02:18:38;;;;;;;47.90;28.35;;;;;;;-0.43;100.00;101043.81;5092903;28;20028;-50
2023/01/20 02:21:28;;;;;;;44.45;27.90;;;;;;;-0.42;100.00;101028.34;5093136;28;20059;-49
2023/01/20 02:24:24;;;;;;;43.33;26.48;;;;;;;-0.47;100.00;101026.31;5092842;28;20028;-46
2023/01/20 02:27:04;;;;;;;45.78;26.95;;;;;;;-0.44;100.00;101034.00;5092640;28;20032;-49
2023/01/20 02:29:51;;;;;;;45.10;28.35;;;;;;;-0.42;100.00;101044.66;5092415;28;20024;-46
2023/01/20 02:32:31;;;;;;;46.33;28.98;;;;;;;-0.47;100.00;101038.00;5092405;28;20038;-46
2023/01/20 02:35:02;;;;;;;43.90;27.70;;;;;;;-0.47;100.00;101037.16;5092694;28;20028;-50
2023/01/20 02:37:37;;;;;;;46.85;28.85;;;;;;;-0.51;100.00;101036.81;5092545;28;20016;-47
2023/01/20 02:40:11;;;;;;;48.58;27.10;;;;;;;-0.47;100.00;101045.31;5092407;28;20020;-46
2023/01/20 02:42:40;;;;;;;;;;;;;;;-0.37;100.00;101053.78;5092149;28;20118;-46
2023/01/20 02:45:15;;;;;;;48.17;28.00;;;;;;;-0.47;100.00;101053.47;5092104;28;19908;-46
2023/01/20 02:47:47;;;;;;;44.17;27.27;;;;;;;-0.51;100.00;101044.97;5091809;28;20039;-46
2023/01/20 02:50:19;;;;;;;47.33;27.83;;;;;;;-0.52;100.00;101054.16;5092274;28;20054;-45
2023/01/20 02:52:50;;;;;;;48.15;27.08;;;;;;;-0.50;100.00;101053.94;5092413;28;20105;-46
2023/01/20 02:55:24;;;;;;;48.72;28.35;;;;;;;-0.50;100.00;101040.34;5091930;28;20127;-46
2023/01/20 02:57:56;;;;;;;43.13;24.77;;;;;;;-0.51;100.00;101047.69;5090431;28;20028;-48
2023/01/20 03:00:29;;;;;;;44.67;27.17;;;;;;;-0.60;100.00;101031.88;5087961;28;20280;-45
2023/01/20 03:02:58;;;;;;;47.20;27.77;;;;;;;-0.66;100.00;101044.53;5091882;28;20030;-49
2023/01/20 03:05:32;;;;;;;43.45;27.95;;;;;;;-0.58;100.00;101057.78;5092194;28;20032;-47
2023/01/20 03:08:00;;;;;;;49.35;28.92;;;;;;;-0.59;100.00;101055.28;5091938;28;20063;-48
2023/01/20 03:10:31;;;;;;;43.92;25.98;;;;;;;-0.64;100.00;101053.25;5090245;28;20384;-45
2023/01/20 03:13:12;;;;;;;48.08;28.88;;;;;;;-0.68;100.00;101058.31;5091544;28;20426;-49
2023/01/20 03:16:00;;;;;;;44.15;28.00;;;;;;;-0.67;100.00;101065.41;5091672;28;20506;-48
2023/01/20 03:18:28;;;;;;;43.55;27.83;;;;;;;-0.68;100.00;101061.03;5091899;28;20111;-46
2023/01/20 03:20:54;;;;;;;42.35;25.77;;;;;;;-0.64;100.00;101069.56;5091510;28;20439;-47
2023/01/20 03:23:20;;;;;;;42.20;28.33;;;;;;;-0.68;100.00;101060.22;5091671;28;20040;-47
2023/01/20 03:25:48;;;;;;;43.83;25.00;;;;;;;-0.70;100.00;101060.41;5091522;28;20544;-48
2023/01/20 03:28:13;;;;;;;41.15;25.90;;;;;;;-0.71;100.00;101066.09;5091605;28;20047;-48
2023/01/20 03:30:38;;;;;;;41.97;26.67;;;;;;;-0.67;100.00;101070.03;5091721;28;20039;-45
2023/01/20 03:33:04;;;;;;;44.13;26.02;;;;;;;-0.67;100.00;101089.03;5090240;28;20114;-46
2023/01/20 03:35:30;;;;;;;43.45;27.08;;;;;;;-0.69;100.00;101088.44;5091474;28;20028;-49
2023/01/20 03:37:56;;;;;;;45.80;27.65;;;;;;;-0.72;100.00;101086.16;5091570;28;20036;-47
2023/01/20 03:40:27;;;;;;;43.55;26.02;;;;;;;-0.67;100.00;101094.47;5091004;28;20490;-47
2023/01/20 03:43:00;;;;;;;40.38;25.25;;;;;;;-0.69;100.00;101088.44;5091329;28;20043;-49
2023/01/20 03:46:01;;;;;;;39.80;25.38;;;;;;;-0.67;100.00;101086.31;5090757;28;20154;-50
2023/01/20 03:48:33;;;;;;;42.63;26.88;;;;;;;-0.73;100.00;101082.63;5091286;28;20066;-46
2023/01/20 03:51:17;;;;;;;43.10;28.17;;;;;;;-0.72;100.00;101086.16;5091047;28;20036;-46
2023/01/20 03:53:58;;;;;;;;;;;;;;;-0.70;100.00;101089.47;5091341;28;20052;-48
2023/01/20 03:56:30;;;;;;;40.83;25.25;;;;;;;-0.75;100.00;101095.59;5090735;28;20288;-46
2023/01/20 03:58:59;;;;;;;44.07;27.23;;;;;;;-0.76;100.00;101093.09;5090732;28;20039;-45
2023/01/20 04:01:31;;;;;;;47.65;27.20;;;;;;;-0.73;100.00;101098.06;5090789;28;20612;-45
2023/01/20 04:03:58;;;;;;;49.45;26.85;;;;;;;-0.75;100.00;101095.59;5091111;28;20477;-45
2023/01/20 04:06:26;;;;;;;42.75;25.77;;;;;;;-0.83;100.00;101091.28;5083562;28;20020;-47
2023/01/20 04:08:59;;;;;;;43.05;25.73;;;;;;;-0.72;100.00;101102.47;5091171;28;20043;-46
2023/01/20 04:11:26;;;;;;;;;;;;;;;-0.67;100.00;101105.34;5091496;28;20079;-47
2023/01/20 04:13:51;;;;;;;44.90;26.02;;;;;;;-0.71;100.00;101099.50;5091007;28;19908;-47
2023/01/20 04:16:18;;;;;;;48.15;28.33;;;;;;;-0.74;100.00;101093.69;5089508;28;20549;-48
2023/01/20 04:18:49;;;;;;;44.90;28.05;;;;;;;-0.75;100.00;101098.31;5091212;28;20027;-50
2023/01/20 04:21:22;;;;;;;44.17;27.00;;;;;;;-0.76;100.00;101091.22;5090801;28;20024;-51
2023/01/20 04:23:59;;;;;;;42.90;27.73;;;;;;;-0.76;100.00;101093.94;5091019;28;20088;-47
2023/01/20 04:26:24;;;;;;;42.65;26.83;;;;;;;-0.75;100.00;101094.75;5090951;28;20059;-47
2023/01/20 04:28:50;;;;;;;46.03;26.40;;;;;;;-0.70;100.00;101095.72;5089786;28;20399;-48
2023/01/20 04:31:16;;;;;;;45.40;28.88;;;;;;;-0.72;100.00;101087.00;5090265;28;20061;-47
2023/01/20 04:33:41;;;;;;;44.22;26.83;;;;;;;-0.69;100.00;101099.31;5090935;28;20073;-47
2023/01/20 04:36:06;;;;;;;48.40;28.75;;;;;;;-0.68;100.00;101095.53;5091020;28;20032;-49
2023/01/20 04:38:32;;;;;;;42.35;27.70;;;;;;;-0.66;100.00;101088.81;5090920;28;20107;-49
2023/01/20 04:40:57;;;;;;;47.70;28.05;;;;;;;-0.73;100.00;101098.06;5090400;28;20356;-52
2023/01/20 04:43:22;;;;;;;48.33;30.25;;;;;;;-0.81;100.00;101094.59;5090623;28;20502;-48
2023/01/20 04:45:48;;;;;;;50.38;28.83;;;;;;;-0.78;100.00;101101.47;5090679;28;20035;-49
2023/01/20 04:48:13;;;;;;;49.95;29.50;;;;;;;-0.79;100.00;101097.09;5090635;28;20175;-48
2023/01/20 04:50:39;;;;;;;49.50;29.60;;;;;;;-0.83;100.00;101104.84;5090323;28;20409;-46
2023/01/20 04:53:05;;;;;;;51.30;29.80;;;;;;;-0.80;100.00;101114.44;5090727;28;20487;-49
2023/01/20 04:55:32;;;;;;;51.97;30.27;;;;;;;-0.82;100.00;101109.22;5089865;28;20048;-50
2023/01/20 04:57:57;;;;;;;48.90;28.98;;;;;;;-0.90;100.00;101101.38;5090657;28;20024;-49
2023/01/20 05:00:23;;;;;;;54.42;31.33;;;;;;;-0.89;100.00;101113.06;5090611;28;20090;-46
2023/01/20 05:02:49;;;;;;;46.45;28.15;;;;;;;-0.81;100.00;101118.22;5090758;28;20059;-47
2023/01/20 05:05:14;;;;;;;50.42;30.60;;;;;;;-0.80;100.00;101128.00;5089315;28;20394;-51
2023/01/20 05:07:39;;;;;;;48.60;29.25;;;;;;;-0.81;100.00;101121.75;5089222;28;20031;-47
2023/01/20 05:10:05;;;;;;;49.10;29.88;;;;;;;-0.85;100.00;101117.00;5092824;28;20020;-47
2023/01/20 05:12:31;;;;;;;45.78;27.73;;;;;;;-0.88;100.00;101123.72;5094356;28;20036;-48
2023/01/20 05:14:56;;;;;;;44.15;27.75;;;;;;;-0.85;100.00;101117.00;5086799;28;20024;-51
2023/01/20 05:17:21;;;;;;;46.58;28.38;;;;;;;-0.85;100.00;101123.25;5092987;28;20044;-48
2023/01/20 05:19:47;;;;;;;51.97;28.75;;;;;;;-0.84;100.00;101124.91;5093999;28;20028;-47
2023/01/20 05:22:12;;;;;;;51.05;31.52;;;;;;;-0.88;100.00;101126.44;5094021;28;20032;-49
2023/01/20 05:24:37;;;;;;;48.55;29.55;;;;;;;-0.89;100.00;101129.34;5093947;28;20024;-47
2023/01/20 05:27:03;;;;;;;46.88;28.27;;;;;;;-0.95;100.00;101140.06;5093854;28;20024;-50
2023/01/20 05:29:28;;;;;;;47.20;29.58;;;;;;;-0.92;100.00;101133.34;5093987;28;20047;-50
2023/01/20 05:31:54;;;;;;;50.15;30.17;;;;;;;-0.95;100.00;101125.66;5093709;28;20028;-46
2023/01/20 05:34:19;;;;;;;46.72;28.67;;;;;;;-0.92;100.00;101122.50;5093947;28;20032;-49
2023/01/20 05:36:44;;;;;;;49.00;29.13;;;;;;;-0.89;100.00;101137.50;5093881;28;20036;-50
2023/01/20 05:39:10;;;;;;;50.30;28.52;;;;;;;-0.89;100.00;101124.78;5093560;28;20050;-48
2023/01/20 05:41:35;;;;;;;47.78;28.10;;;;;;;-0.88;100.00;101133.72;5093345;28;20038;-45
2023/01/20 05:44:00;;;;;;;51.70;29.73;;;;;;;-0.92;100.00;101127.91;5093286;28;20028;-46
2023/01/20 05:46:26;;;;;;;45.85;27.75;;;;;;;-0.93;100.00;101123.53;5093508;28;20020;-51
2023/01/20 05:48:51;;;;;;;47.15;27.92;;;;;;;-0.94;100.00;101135.44;5093231;28;20056;-47
2023/01/20 05:51:16;;;;;;;47.17;27.92;;;;;;;-0.91;100.00;101137.72;5093312;28;20054;-46
2023/01/20 05:53:41;;;;;;;52.05;30.77;;;;;;;-1.00;100.00;101136.34;5093330;28;20471;-49
2023/01/20 05:56:07;;;;;;;46.60;29.25;;;;;;;-1.00;100.00;101134.47;5093094;28;20051;-46
2023/01/20 05:58:32;;;;;;;45.45;29.30;;;;;;;-1.01;100.00;101131.97;5092090;28;20085;-49
2023/01/20 06:01:06;;;;;;;45.50;29.38;;;;;;;-1.03;100.00;101131.34;5092200;28;20101;-47
2023/01/20 06:03:31;;;;;;;;;;;;;;;-0.98;100.00;101143.22;5090841;28;20103;-52
2023/01/20 06:06:02;;;;;;;47.22;28.40;;;;;;;-0.98;100.00;101142.41;5091730;28;20405;-51
2023/01/20 06:08:27;;;;;;;49.13;28.55;;;;;;;-0.97;100.00;101141.34;5084636;28;20134;-49
2023/01/20 06:10:53;;;;;;;48.38;29.13;;;;;;;-0.98;100.00;101137.78;5091255;28;20028;-50
2023/01/20 06:13:18;;;;;;;48.58;27.55;;;;;;;-0.98;100.00;101145.13;5091428;28;20476;-49
2023/01/20 06:15:44;;;;;;;50.38;29.13;;;;;;;-0.96;100.00;101148.44;5091057;28;20048;-47
2023/01/20 06:18:11;;;;;;;48.53;28.65;;;;;;;-0.98;100.00;101147.81;5091300;28;20047;-49
2023/01/20 06:20:37;;;;;;;48.08;27.73;;;;;;;-0.99;100.00;101146.97;5091203;28;20063;-49
2023/01/20 06:23:02;;;;;;;49.75;30.08;;;;;;;-0.99;100.00;101149.69;5091014;28;20074;-50
2023/01/20 06:25:28;;;;;;;48.38;28.13;;;;;;;-1.04;100.00;101152.25;5091213;28;20028;-51
2023/01/20 06:27:53;;;;;;;51.42;28.85;;;;;;;-1.05;100.00;101157.91;5091201;28;20032;-50
2023/01/20 06:30:18;;;;;;;49.00;29.65;;;;;;;-1.04;100.00;101156.88;5090905;28;20433;-48
2023/01/20 06:32:47;;;;;;;49.58;29.15;;;;;;;-1.05;100.00;101158.75;5091051;28;20020;-49
2023/01/20 06:35:12;;;;;;;48.80;28.42;;;;;;;-1.05;100.00;101152.50;5091259;28;20032;-49
2023/01/20 06:37:38;;;;;;;49.65;27.77;;;;;;;-0.98;100.00;101159.50;5090800;28;20020;-53
2023/01/20 06:40:04;;;;;;;47.10;28.73;;;;;;;-0.94;100.00;101168.03;5090868;28;20031;-47
2023/01/20 06:42:30;;;;;;;47.97;27.10;;;;;;;-0.92;100.00;101163.22;5090938;28;20024;-52
2023/01/20 06:44:55;;;;;;;46.88;28.40;;;;;;;-0.90;100.00;101160.31;5090468;28;20035;-53
2023/01/20 06:47:21;;;;;;;49.92;27.48;;;;;;;-0.90;100.00;101155.69;5090680;28;20036;-52
2023/01/20 06:49:46;;;;;;;46.00;27.65;;;;;;;-0.89;100.00;101149.22;5090452;28;20049;-50
2023/01/20 06:52:11;;;;;;;47.33;27.50;;;;;;;-0.89;100.00;101156.50;5090651;28;20589;-52
2023/01/20 06:54:37;;;;;;;48.60;27.77;;;;;;;-0.89;100.00;101157.38;5090039;28;20116;-50
2023/01/20 06:57:02;;;;;;;49.80;28.50;;;;;;;-0.90;100.00;101149.44;5090374;28;20077;-48
2023/01/20 06:59:27;;;;;;;43.63;26.60;;;;;;;-0.88;100.00;101153.59;5090082;28;20082;-48
2023/01/20 07:01:53;;;;;;;48.50;28.70;;;;;;;-0.88;100.00;101156.31;5090384;28;20039;-49
2023/01/20 07:04:18;;;;;;;44.22;26.48;;;;;;;-0.88;100.00;101161.75;5082222;27;20024;-49
2023/01/20 07:06:43;;;;;;;44.53;27.10;;;;;;;-0.87;100.00;101163.41;5088624;28;20035;-48
2023/01/20 07:09:10;;;;;;;45.42;26.98;;;;;;;-0.85;100.00;101163.19;5088556;28;20417;-48
2023/01/20 07:11:36;;;;;;;41.15;25.95;;;;;;;-0.85;100.00;101165.91;5089875;28;20032;-49
2023/01/20 07:14:03;;;;;;;45.53;26.48;;;;;;;-0.84;100.00;101168.38;5089847;28;20032;-47
2023/01/20 07:16:28;;;;;;;46.25;26.42;;;;;;;-0.84;100.00;101176.53;5090053;28;20585;-49
2023/01/20 07:18:53;;;;;;;48.30;27.88;;;;;;;-0.84;100.00;101171.09;5089704;28;20036;-51
2023/01/20 07:21:20;;;;;;;47.80;26.67;;;;;;;-0.81;100.00;101178.81;5089810;28;20103;-47
2023/01/20 07:23:46;;;;;;;48.20;26.77;;;;;;;-0.77;100.00;101175.66;5088410;28;20036;-49
2023/01/20 07:26:14;;;;;;;46.20;27.02;;;;;;;-0.81;100.00;101186.97;5088075;28;20024;-49
2023/01/20 07:28:40;;;;;;;45.55;27.52;;;;;;;-0.82;100.00;101185.28;5089304;28;20024;-47
2023/01/20 07:31:07;;;;;;;48.70;27.63;;;;;;;-0.76;100.00;101185.47;5089623;28;20140;-47
2023/01/20 07:33:33;;;;;;;45.50;27.58;;;;;;;-0.76;100.00;101197.16;5088882;28;20480;-49
2023/01/20 07:35:59;;;;;;;44.90;27.65;;;;;;;-0.72;100.00;101192.13;5089080;28;20483;-53
2023/01/20 07:38:24;;;;;;;47.13;27.98;;;;;;;-0.72;100.00;101187.53;5089352;28;20048;-47
2023/01/20 07:40:49;;;;;;;48.03;27.70;;;;;;;-0.71;100.00;101185.63;5089024;28;20106;-49
2023/01/20 07:43:15;;;;;;;48.20;28.83;;;;;;;-0.71;100.00;101186.44;5089261;28;20066;-50
2023/01/20 07:45:41;;;;;;;48.35;28.38;;;;;;;-0.70;100.00;101195.44;5089940;28;20024;-47
2023/01/20 07:48:06;;;;;;;45.60;27.35;;;;;;;-0.69;100.00;101197.13;5088740;28;20437;-54
2023/01/20 07:50:33;;;;;;;41.88;26.17;;;;;;;-0.68;100.00;101198.78;5088704;28;20386;-51
2023/01/20 07:52:59;;;;;;;47.80;27.40;;;;;;;-0.68;100.00;101201.50;5088987;28;20027;-47
2023/01/20 07:55:24;;;;;;;43.72;28.02;;;;;;;-0.68;100.00;101198.78;5088596;28;20123;-52
2023/01/20 07:57:49;;;;;;;46.72;28.60;;;;;;;-0.70;100.00;101201.69;5088505;28;20070;-52
2023/01/20 08:00:18;;;;;;;47.83;27.30;;;;;;;-0.73;100.00;101191.28;5081307;28;20016;-49
2023/01/20 08:02:43;;;;;;;47.58;26.58;;;;;;;-0.71;100.00;101207.38;5088633;28;20079;-49
2023/01/20 08:05:08;;;;;;;45.83;26.30;;;;;;;-0.71;100.00;101202.75;5090542;28;20400;-48
2023/01/20 08:07:33;;;;;;;43.88;27.27;;;;;;;-0.72;100.00;101213.84;5090927;28;20024;-48
2023/01/20 08:09:59;;;;;;;43.47;26.75;;;;;;;-0.71;100.00;101229.09;5090673;28;20373;-51
2023/01/20 08:12:24;;;;;;;44.90;27.33;;;;;;;-0.70;100.00;101215.28;5090622;28;20066;-46
2023/01/20 08:14:49;;;;;;;46.42;28.10;;;;;;;-0.69;100.00;101214.25;5090604;28;20069;-47
2023/01/20 08:17:15;;;;;;;44.20;26.17;;;;;;;-0.66;100.00;101216.53;5090477;28;20069;-50
2023/01/20 08:19:40;;;;;;;44.15;26.75;;;;;;;-0.66;100.00;101218.41;5090382;28;20348;-46
2023/01/20 08:22:05;;;;;;;46.40;27.90;;;;;;;-0.67;100.00;101219.47;5090715;28;20059;-50
2023/01/20 08:24:31;;;;;;;42.10;26.08;;;;;;;-0.66;100.00;101213.81;5090393;28;20021;-50
2023/01/20 08:26:56;;;;;;;46.00;27.90;;;;;;;-0.69;100.00;101206.09;5090464;28;20026;-51
2023/01/20 08:29:22;;;;;;;46.72;27.55;;;;;;;-0.65;100.00;101212.75;5090540;28;20107;-50
2023/01/20 08:31:47;;;;;;;44.95;27.98;;;;;;;-0.63;100.00;101217.97;5089341;28;20498;-51
2023/01/20 08:34:13;;;;;;;49.00;27.80;;;;;;;-0.61;100.00;101217.75;5090587;28;20176;-51
2023/01/20 08:36:40;;;;;;;47.85;28.27;;;;;;;-0.61;100.00;101218.56;5090666;28;20032;-51
2023/01/20 08:39:07;;;;;;;47.20;26.77;;;;;;;-0.60;100.00;101222.97;5088815;28;20394;-48
2023/01/20 08:41:35;;;;;;;47.50;28.48;;;;;;;-0.60;100.00;101220.25;5087041;28;20107;-51
2023/01/20 08:44:03;;;;;;;43.00;26.17;;;;;;;-0.61;100.00;101221.28;5088263;28;20027;-48
2023/01/20 08:46:29;;;;;;;43.95;26.55;;;;;;;-0.61;100.00;101229.44;5093020;28;20028;-50
2023/01/20 08:48:55;;;;;;;43.30;26.80;;;;;;;-0.62;100.00;101230.50;5092796;28;20028;-51
2023/01/20 08:51:27;;;;;;;43.50;27.08;;;;;;;-0.61;100.00;101229.44;5091022;28;20043;-51
2023/01/20 08:53:52;;;;;;;43.10;25.40;;;;;;;-0.59;100.00;101237.38;5090550;28;20041;-52
2023/01/20 08:56:19;;;;;;;43.40;27.17;;;;;;;-0.58;100.00;101237.16;5086562;28;20139;-48
2023/01/20 08:58:44;;;;;;;42.50;26.15;;;;;;;-0.62;100.00;101238.66;5090435;28;20445;-50
2023/01/20 09:01:13;;;;;;;40.65;26.77;;;;;;;-0.64;100.00;101240.75;5092061;28;20107;-51
2023/01/20 09:03:39;;;;;;;43.10;26.40;;;;;;;-0.66;100.00;101234.72;5091953;28;20031;-47
2023/01/20 09:06:05;;;;;;;42.10;26.15;;;;;;;-0.67;100.00;101241.22;5092107;28;20032;-48
2023/01/20 09:08:31;;;;;;;42.53;26.10;;;;;;;-0.65;100.00;101239.06;5091633;28;20118;-48
2023/01/20 09:11:02;;;;;;;43.53;25.95;;;;;;;-0.64;100.00;101248.91;5087284;28;20036;-48
2023/01/20 09:13:27;;;;;;;38.45;23.90;;;;;;;-0.65;100.00;101247.22;5083226;28;20115;-50
2023/01/20 09:15:52;;;;;;;39.47;25.02;;;;;;;-0.65;100.00;101249.94;5082228;28;20115;-50
2023/01/20 09:18:18;;;;;;;40.28;23.60;;;;;;;-0.65;100.00;101253.50;5086646;28;20487;-49
2023/01/20 09:20:43;;;;;;;38.00;23.98;;;;;;;-0.64;100.00;101259.78;5091435;28;20093;-47
2023/01/20 09:23:08;;;;;;;37.58;24.63;;;;;;;-0.61;100.00;101247.66;5091099;28;20028;-45
2023/01/20 09:25:33;;;;;;;41.67;25.55;;;;;;;-0.60;100.00;101244.69;5091887;28;20032;-47
2023/01/20 09:28:00;;;;;;;42.33;25.25;;;;;;;-0.63;100.00;101242.41;5091432;28;20056;-48
2023/01/20 09:30:25;;;;;;;39.13;25.17;;;;;;;-0.64;100.00;101240.75;5091561;28;20035;-51
2023/01/20 09:32:52;;;;;;;39.20;23.58;;;;;;;-0.66;100.00;101232.81;5091744;28;20028;-47
2023/01/20 09:35:18;;;;;;;41.72;23.98;;;;;;;-0.67;100.00;101239.31;5091605;28;20056;-47
2023/01/20 09:43:55;;;;;;;39.45;24.35;;;;;;;-0.61;100.00;101236.78;5091581;28;20192;-51
2023/01/20 09:47:18;;;;;;;38.97;23.38;;;;;;;-0.54;100.00;101241.09;5073634;28;20043;-49
2023/01/20 09:52:59;;;;;;;38.55;23.83;;;;;;;-0.47;100.00;101236.41;5091265;28;20521;-51
2023/01/20 09:55:40;;;;;;;41.10;25.77;;;;;;;-0.40;100.00;101239.06;5090740;28;20052;-46
2023/01/20 09:58:32;;;;;;;34.83;22.77;;;;;;;-0.41;100.00;101233.88;5089708;28;20565;-48
2023/01/20 10:01:17;;;;;;;38.13;24.23;;;;;;;-0.41;100.00;101229.25;5091150;28;20456;-47
2023/01/20 10:03:54;;;;;;;37.88;24.05;;;;;;;-0.40;100.00;101236.38;5091293;28;20055;-47
2023/01/20 10:06:30;;;;;;;37.83;23.25;;;;;;;-0.40;100.00;101239.06;5076138;28;20029;-48
2023/01/20 10:09:01;;;;;;;37.83;23.73;;;;;;;-0.41;100.00;101242.03;5071151;28;20430;-46
2023/01/20 10:11:30;;;;;;;37.88;24.67;;;;;;;-0.39;100.00;101246.19;5070722;28;20103;-47
2023/01/20 10:14:06;;;;;;;36.75;24.75;;;;;;;-0.42;100.00;101243.91;5070167;28;20469;-49
2023/01/20 10:16:56;;;;;;;36.60;23.77;;;;;;;-0.40;100.00;101244.53;5070393;28;20028;-50
2023/01/20 10:19:33;;;;;;;34.80;22.40;;;;;;;-0.42;100.00;101243.09;5084210;28;20043;-49
2023/01/20 10:22:12;;;;;;;35.53;23.27;;;;;;;-0.39;100.00;101250.81;5088638;28;20387;-50
2023/01/20 10:24:58;;;;;;;36.90;24.25;;;;;;;-0.40;100.00;101239.06;5089810;28;20117;-50
2023/01/20 10:27:27;;;;;;;37.00;23.65;;;;;;;-0.43;100.00;101241.41;5089318;28;20035;-49
2023/01/20 10:30:04;;;;;;;35.97;23.20;;;;;;;-0.33;100.00;101255.34;5090766;28;20101;-50
2023/01/20 10:32:36;;;;;;;36.80;24.45;;;;;;;-0.34;100.00;101256.38;5089702;28;20096;-52
2023/01/20 10:35:18;;;;;;;35.63;24.13;;;;;;;-0.30;100.00;101257.63;5088989;28;20051;-48
2023/01/20 10:37:44;;;;;;;36.75;23.40;;;;;;;-0.29;100.00;101262.00;5088847;28;20039;-46
2023/01/20 10:40:18;;;;;;;39.55;25.27;;;;;;;-0.27;100.00;101262.59;5088748;28;20024;-47
2023/01/20 10:42:52;;;;;;;36.63;23.58;;;;;;;-0.27;100.00;101257.16;5088702;28;20047;-47
2023/01/20 10:45:29;;;;;;;33.88;22.55;;;;;;;-0.28;100.00;101263.66;5079547;28;20028;-47
2023/01/20 10:48:02;;;;;;;34.42;22.20;;;;;;;-0.25;100.00;101265.09;5088616;28;20044;-50
2023/01/20 10:51:03;;;;;;;34.63;22.85;;;;;;;-0.21;100.00;101258.16;5090012;28;20088;-48
2023/01/20 10:53:49;;;;;;;33.70;22.80;;;;;;;-0.16;100.00;101263.75;5065902;28;20042;-49
2023/01/20 10:56:35;;;;;;;32.13;21.95;;;;;;;-0.12;100.00;101259.53;5090102;28;20071;-48
2023/01/20 10:59:19;;;;;;;33.00;23.10;;;;;;;-0.13;100.00;101257.03;5090038;28;20438;-48
2023/01/20 11:01:48;;;;;;;31.92;20.83;;;;;;;-0.02;100.00;101259.03;5089465;28;20114;-48
2023/01/20 11:04:19;;;;;;;33.92;21.50;;;;;;;-0.01;100.00;101268.84;5088189;28;20070;-47
2023/01/20 11:06:55;;;;;;;34.53;23.23;;;;;;;0.06;100.00;101268.75;5087972;28;20072;-47
2023/01/20 11:09:38;;;;;;;32.97;22.23;;;;;;;0.06;100.00;101269.59;5087698;28;20051;-48
2023/01/20 11:12:13;;;;;;;32.70;21.35;;;;;;;0.11;100.00;101274.38;5088127;28;20415;-49
2023/01/20 11:14:39;;;;;;;33.05;21.15;;;;;;;0.10;100.00;101280.88;5089489;28;20035;-48
2023/01/20 11:17:07;;;;;;;31.60;21.05;;;;;;;0.11;100.00;101271.66;5089994;28;20032;-46
2023/01/20 11:19:53;;;;;;;31.10;21.80;;;;;;;0.12;100.00;101276.03;5089224;28;20032;-49